Portada
METAR-TAF:

METAR-TAF

Aeropuertos :

Aeropuerto Internacional L.F. Wade

Bermudas, Bermudas

latitud: 32-22N, longitud: 064-41W, altitud: 6 m

Observación

El informe se hizo hace 22 minutos, a las 17:55 UTC
Viento 8 kt del sur
Temperatura 18°C
Humedad 59%
Presión 1024 hPa
Visibilidad 10 km o más
Cielo nuboso a una altura de 4500 ft
Cielo cubierto a una altura de 30000 ft

METAR: TXKF 251755Z 17008KT 9999 BKN045 OVC300 18/10 Q1024

Hora: 15:17 (18:17 UTC)

Pronóstico

El informe se hizo hace 46 minutos, a las 17:31 UTC
Pronóstico válido del 25 a las 18 UTC al 26 a las 18 UTC
Viento 7 kt del sur-suroeste
Visibilidad 10 km o más
Cielo nuboso a una altura de 4000 ft
Evolucionando progresivamente
del 26 a las 15 UTC al 26 a las 18 UTC
Cielo nuboso a una altura de 1400 ft
chaparrones en las proximidades

TAF: TXKF 251731Z 2518/2618 20007KT 9999 BKN040 BECMG 2615/2618 VCSH BKN014

Observaciones y pronósticos meteorológicos de más de 4000 aeropuertos (mensajes METAR y TAF).

Los puntos amarillos y rojos representan las estaciones disponibles.

Ponga el ratón en el punto deseado para ver el nombre de la estación.

Haga clic para ver las observaciones y los pronósticos meteorológicos.

Para cambiar el mapa : haga clic en los botones verdes con una cruz de color negro para hacer un zoom, en el botón verde con un guión para alejar o en las flechas verdes para mapas adyacentes.


METAR-TAF: